createdAt,value
2017-05-12T00:01:35.534Z,66.30
2017-05-12T00:04:04.613Z,69.30
2017-05-12T00:06:33.655Z,70.10
2017-05-12T00:09:02.739Z,68.50
2017-05-12T00:11:32.519Z,65.50
2017-05-12T00:14:01.866Z,68.20
2017-05-12T00:16:30.940Z,68.70
2017-05-12T00:19:00.759Z,71.70
2017-05-12T00:21:30.537Z,71.10
2017-05-12T00:23:59.610Z,69.40
2017-05-12T00:26:28.646Z,69.50
2017-05-12T00:28:57.724Z,70.20
2017-05-12T00:31:27.070Z,71.40
2017-05-12T00:33:56.122Z,71.00
2017-05-12T00:36:25.190Z,68.30
2017-05-12T00:38:54.257Z,70.50
2017-05-12T00:41:23.298Z,70.80
2017-05-12T00:43:52.664Z,70.00
2017-05-12T00:46:21.694Z,71.00
2017-05-12T00:48:51.057Z,72.10
2017-05-12T00:51:20.163Z,71.10
2017-05-12T00:53:49.236Z,74.00
2017-05-12T00:56:19.022Z,71.90
2017-05-12T00:58:48.888Z,71.60
2017-05-12T01:01:17.927Z,72.60
2017-05-12T01:03:46.990Z,70.90
2017-05-12T01:06:16.037Z,72.00
2017-05-12T01:08:45.838Z,71.20
2017-05-12T01:11:15.995Z,73.30
2017-05-12T01:13:45.081Z,72.80
2017-05-12T01:16:15.108Z,72.00
2017-05-12T01:18:44.194Z,75.20
2017-05-12T01:21:13.970Z,73.30
2017-05-12T01:23:43.064Z,73.70
2017-05-12T01:26:12.124Z,72.60
2017-05-12T01:28:41.191Z,72.10
2017-05-12T01:31:11.100Z,74.60
2017-05-12T01:33:40.877Z,72.10
2017-05-12T01:36:09.955Z,73.00
2017-05-12T01:38:38.992Z,72.10
2017-05-12T01:41:08.079Z,72.10
2017-05-12T01:43:37.124Z,71.00
2017-05-12T01:46:06.204Z,73.70
2017-05-12T01:48:35.247Z,75.40
2017-05-12T01:51:04.319Z,74.60
2017-05-12T01:53:33.407Z,74.60
2017-05-12T01:56:02.451Z,75.40
2017-05-12T01:58:31.528Z,76.20
2017-05-12T02:01:00.632Z,74.50
2017-05-12T02:03:29.658Z,73.80
2017-05-12T02:05:59.492Z,75.30
2017-05-12T02:08:28.528Z,75.80
2017-05-12T02:10:57.603Z,75.50
2017-05-12T02:13:26.674Z,77.40
2017-05-12T02:15:55.779Z,78.40
2017-05-12T02:18:24.856Z,77.40
2017-05-12T02:20:54.623Z,77.60
2017-05-12T02:23:23.702Z,77.40
2017-05-12T02:25:52.741Z,76.10
2017-05-12T02:28:21.807Z,75.90
2017-05-12T02:30:50.872Z,75.70
2017-05-12T02:33:19.946Z,77.60
2017-05-12T02:35:49.728Z,78.10
2017-05-12T02:38:18.797Z,78.20
2017-05-12T02:40:47.879Z,78.10
2017-05-12T02:43:16.910Z,78.70
2017-05-12T02:45:45.990Z,77.50
2017-05-12T02:48:15.103Z,77.80
2017-05-12T02:50:44.138Z,78.40
2017-05-12T02:53:13.240Z,78.40
2017-05-12T02:55:42.266Z,77.90
2017-05-12T02:58:11.336Z,78.80
2017-05-12T03:00:40.405Z,80.00
2017-05-12T03:03:10.192Z,78.30
2017-05-12T03:05:39.267Z,76.40
2017-05-12T03:08:08.307Z,78.50
2017-05-12T03:10:38.122Z,76.30
2017-05-12T03:13:07.912Z,79.80
2017-05-12T03:15:36.999Z,77.40
2017-05-12T03:18:06.045Z,78.00
2017-05-12T03:20:35.116Z,79.10
2017-05-12T03:23:04.908Z,79.90
2017-05-12T03:25:33.997Z,76.40
2017-05-12T03:28:03.033Z,80.20
2017-05-12T03:30:32.849Z,77.70
2017-05-12T03:33:02.667Z,77.00
2017-05-12T03:35:31.711Z,79.80
2017-05-12T03:38:00.798Z,79.00
2017-05-12T03:40:29.872Z,79.40
2017-05-12T03:42:58.908Z,81.80
2017-05-12T03:45:27.975Z,79.30
2017-05-12T03:47:57.031Z,80.10
2017-05-12T03:50:26.067Z,79.40
2017-05-12T03:52:55.158Z,81.80
2017-05-12T03:55:24.195Z,81.00
2017-05-12T03:57:53.265Z,81.80
2017-05-12T04:00:22.298Z,80.50
2017-05-12T04:02:52.431Z,81.20
2017-05-12T04:05:21.476Z,80.40
2017-05-12T04:07:50.568Z,79.10
2017-05-12T04:10:19.710Z,80.90
2017-05-12T04:12:49.523Z,75.40
2017-05-12T04:15:19.294Z,77.40
2017-05-12T04:17:48.381Z,77.10
2017-05-12T04:20:17.428Z,78.80
2017-05-12T04:22:47.317Z,76.70
2017-05-12T04:25:16.364Z,77.80
2017-05-12T04:27:45.436Z,77.70
2017-05-12T04:30:15.248Z,78.80
2017-05-12T04:32:45.022Z,77.60
2017-05-12T04:35:14.113Z,77.70
2017-05-12T04:37:43.154Z,77.60
2017-05-12T04:40:12.976Z,78.40
2017-05-12T04:42:42.016Z,77.10
2017-05-12T04:45:11.091Z,74.90
2017-05-12T04:47:40.160Z,76.80
2017-05-12T04:50:09.460Z,76.70
2017-05-12T04:52:38.549Z,77.70
2017-05-12T04:55:08.318Z,76.40
2017-05-12T04:57:37.395Z,76.60
2017-05-12T05:00:06.444Z,78.10
2017-05-12T05:02:36.578Z,76.00
2017-05-12T05:05:05.878Z,76.60
2017-05-12T05:07:34.964Z,76.50
2017-05-12T05:10:04.781Z,76.70
2017-05-12T05:12:33.824Z,77.80
2017-05-12T05:15:02.870Z,77.60
2017-05-12T05:17:32.699Z,76.80
2017-05-12T05:20:01.743Z,77.70
2017-05-12T05:22:30.816Z,76.20
2017-05-12T05:24:59.917Z,73.90
2017-05-12T05:27:28.957Z,73.20
2017-05-12T05:29:58.797Z,75.10
2017-05-12T05:32:27.843Z,74.40
2017-05-12T05:34:56.948Z,74.40
2017-05-12T05:37:25.996Z,72.60
2017-05-12T05:39:55.076Z,72.70
2017-05-12T05:42:24.161Z,74.40
2017-05-12T05:44:53.991Z,72.40
2017-05-12T05:47:23.049Z,73.40
2017-05-12T05:49:52.375Z,72.70
2017-05-12T05:52:21.411Z,73.50
2017-05-12T05:54:50.491Z,73.40
2017-05-12T05:57:19.569Z,72.20
2017-05-12T05:59:48.844Z,71.90
2017-05-12T06:02:18.677Z,73.70
2017-05-12T06:04:47.722Z,75.20
2017-05-12T06:07:16.799Z,74.70
2017-05-12T06:09:45.897Z,74.20
2017-05-12T06:12:14.956Z,74.20
2017-05-12T06:14:44.027Z,73.60
2017-05-12T06:17:13.849Z,72.20
2017-05-12T06:19:43.629Z,73.60
2017-05-12T06:22:12.721Z,73.00
2017-05-12T06:24:41.758Z,72.30
2017-05-12T06:27:11.574Z,72.10
2017-05-12T06:29:40.625Z,71.90
2017-05-12T06:32:09.714Z,71.20
2017-05-12T06:34:38.769Z,71.80
2017-05-12T06:37:07.856Z,72.40
2017-05-12T06:39:37.632Z,70.80
2017-05-12T06:42:06.711Z,70.50
2017-05-12T06:44:35.794Z,70.40
2017-05-12T06:47:04.863Z,70.40
2017-05-12T06:49:33.923Z,70.20
2017-05-12T06:52:03.012Z,68.60
2017-05-12T06:54:32.052Z,67.40
2017-05-12T06:57:01.127Z,68.00
2017-05-12T06:59:30.911Z,67.60
2017-05-12T07:02:00.029Z,67.30
2017-05-12T07:04:29.100Z,67.20
2017-05-12T07:06:58.184Z,67.30
2017-05-12T07:09:27.271Z,67.50
2017-05-12T07:11:56.327Z,68.50
2017-05-12T07:14:26.160Z,67.30
2017-05-12T07:16:55.202Z,66.80
2017-05-12T07:19:24.270Z,67.60
2017-05-12T07:21:53.360Z,67.60
2017-05-12T07:24:22.399Z,67.20
2017-05-12T07:26:51.487Z,67.60
2017-05-12T07:29:20.534Z,67.40
2017-05-12T07:31:49.617Z,66.90
2017-05-12T07:34:18.678Z,65.40
2017-05-12T07:36:47.744Z,65.60
2017-05-12T07:39:16.836Z,66.40
2017-05-12T07:41:45.888Z,66.20
2017-05-12T07:44:15.716Z,65.60
2017-05-12T07:46:44.746Z,66.50
2017-05-12T07:49:13.832Z,66.20
2017-05-12T07:51:43.213Z,65.70
2017-05-12T07:54:12.257Z,66.60
2017-05-12T07:56:41.327Z,64.60
2017-05-12T07:59:10.407Z,64.40
2017-05-12T08:01:39.795Z,64.50
2017-05-12T08:04:08.852Z,64.80
2017-05-12T08:06:37.931Z,64.50
2017-05-12T08:09:06.972Z,64.00
2017-05-12T08:11:36.788Z,63.50
2017-05-12T08:14:06.671Z,64.20
2017-05-12T08:16:35.714Z,63.90
2017-05-12T08:19:04.816Z,64.00
2017-05-12T08:21:33.864Z,64.20
2017-05-12T08:24:02.957Z,62.30
2017-05-12T08:26:32.016Z,62.20
2017-05-12T08:29:01.095Z,62.20
2017-05-12T08:31:30.184Z,62.00
2017-05-12T08:33:59.217Z,61.70
2017-05-12T08:36:28.291Z,61.90
2017-05-12T08:38:57.362Z,61.20
2017-05-12T08:41:26.402Z,62.40
2017-05-12T08:43:55.482Z,61.70
2017-05-12T08:46:24.577Z,60.40
2017-05-12T08:48:53.619Z,61.00
2017-05-12T08:51:23.460Z,60.90
2017-05-12T08:53:52.767Z,61.00
2017-05-12T08:56:21.846Z,61.70
2017-05-12T08:58:51.687Z,60.90
2017-05-12T09:01:20.729Z,61.00
2017-05-12T09:03:49.803Z,60.60
2017-05-12T09:06:18.887Z,59.80
2017-05-12T09:08:47.944Z,60.00
2017-05-12T09:11:17.788Z,59.10
2017-05-12T09:13:46.850Z,60.10
2017-05-12T09:16:16.675Z,59.40
2017-05-12T09:18:45.745Z,59.20
2017-05-12T09:21:14.807Z,58.50
2017-05-12T09:23:43.900Z,58.50
2017-05-12T09:26:13.009Z,59.10
2017-05-12T09:28:42.088Z,59.80
2017-05-12T09:31:11.163Z,58.80
2017-05-12T09:33:40.212Z,58.70
2017-05-12T09:36:09.300Z,57.80
2017-05-12T09:38:38.350Z,57.90
2017-05-12T09:41:07.424Z,57.70
2017-05-12T09:43:37.279Z,56.70
2017-05-12T09:46:06.315Z,56.30
2017-05-12T09:48:36.139Z,57.90
2017-05-12T09:51:05.932Z,56.00
2017-05-12T09:53:35.378Z,54.20
2017-05-12T09:56:04.418Z,54.10
2017-05-12T09:58:33.495Z,55.10
2017-05-12T10:01:02.571Z,54.50
2017-05-12T10:03:31.669Z,53.60
2017-05-12T10:06:00.734Z,56.00
2017-05-12T10:08:30.588Z,56.60
2017-05-12T10:10:59.634Z,53.10
2017-05-12T10:13:28.710Z,52.80
2017-05-12T10:15:57.755Z,53.30
2017-05-12T10:18:26.845Z,52.90
2017-05-12T10:20:55.893Z,52.30
2017-05-12T10:23:24.980Z,51.10
2017-05-12T10:25:54.032Z,50.90
2017-05-12T10:28:23.124Z,51.10
2017-05-12T10:30:52.431Z,50.70
2017-05-12T10:33:21.508Z,52.30
2017-05-12T10:35:51.319Z,53.10
2017-05-12T10:38:21.116Z,52.40
2017-05-12T10:40:50.449Z,53.90
2017-05-12T10:43:19.487Z,51.10
2017-05-12T10:45:48.572Z,50.80
2017-05-12T10:48:17.660Z,52.20
2017-05-12T10:50:46.712Z,52.80
2017-05-12T10:53:16.519Z,51.10
2017-05-12T10:55:46.313Z,48.10
2017-05-12T10:58:15.655Z,50.30
2017-05-12T11:00:44.698Z,50.00
2017-05-12T11:03:13.774Z,48.50
2017-05-12T11:05:42.852Z,48.60
2017-05-12T11:08:11.930Z,48.40
2017-05-12T11:10:41.707Z,43.60
2017-05-12T11:13:10.791Z,48.60
2017-05-12T11:15:39.835Z,49.90
2017-05-12T11:18:08.120Z,49.90
2017-05-12T11:20:37.189Z,45.20
2017-05-12T11:23:06.224Z,46.20
2017-05-12T11:25:35.305Z,45.20
2017-05-12T11:28:05.100Z,43.20
2017-05-12T11:30:35.235Z,44.90
2017-05-12T11:33:04.279Z,44.40
2017-05-12T11:35:33.346Z,48.60
2017-05-12T11:38:02.416Z,44.80
2017-05-12T11:40:32.214Z,43.00
2017-05-12T11:43:02.035Z,43.30
2017-05-12T11:45:31.806Z,43.70
2017-05-12T11:48:01.159Z,48.20
2017-05-12T11:50:30.190Z,47.40
2017-05-12T11:52:59.280Z,43.20
2017-05-12T11:55:28.340Z,45.50
2017-05-12T11:57:58.181Z,41.40
2017-05-12T12:00:27.569Z,40.80
2017-05-12T12:02:56.748Z,42.00
2017-05-12T12:05:26.572Z,42.70
2017-05-12T12:07:56.346Z,44.30
2017-05-12T12:10:25.422Z,44.50
2017-05-12T12:12:54.475Z,40.40
2017-05-12T12:15:24.297Z,40.10
2017-05-12T12:17:53.346Z,40.40
2017-05-12T12:20:22.444Z,40.80
2017-05-12T12:22:51.487Z,41.00
2017-05-12T12:25:20.576Z,40.70
2017-05-12T12:27:49.633Z,39.70
2017-05-12T12:30:18.716Z,39.50
2017-05-12T12:32:47.802Z,41.60
2017-05-12T12:35:16.857Z,39.60
2017-05-12T12:37:45.940Z,43.70
2017-05-12T12:40:15.723Z,40.90
2017-05-12T12:42:44.798Z,41.20
2017-05-12T12:45:14.563Z,42.70
2017-05-12T12:47:43.985Z,39.50
2017-05-12T12:50:13.089Z,41.30
2017-05-12T12:52:42.376Z,37.90
2017-05-12T12:55:12.184Z,37.50
2017-05-12T12:57:41.223Z,37.20
2017-05-12T13:00:10.298Z,37.80
2017-05-12T13:02:39.455Z,38.50
2017-05-12T13:05:09.236Z,37.50
2017-05-12T13:07:38.350Z,37.40
2017-05-12T13:10:07.465Z,36.70
2017-05-12T13:12:37.299Z,36.40
2017-05-12T13:15:06.348Z,36.80
2017-05-12T13:17:35.688Z,38.80
2017-05-12T13:20:04.764Z,36.10
2017-05-12T13:22:34.357Z,37.40
2017-05-12T13:25:03.700Z,35.50
2017-05-12T13:27:32.759Z,37.00
2017-05-12T13:30:01.859Z,35.30
2017-05-12T13:32:30.913Z,35.80
2017-05-12T13:35:00.012Z,34.80
2017-05-12T13:37:29.058Z,34.30
2017-05-12T13:39:58.875Z,33.20
2017-05-12T13:42:28.663Z,33.10
2017-05-12T13:44:58.010Z,32.70
2017-05-12T13:47:27.080Z,36.30
2017-05-12T13:49:56.864Z,33.40
2017-05-12T13:52:25.963Z,34.10
2017-05-12T13:54:55.017Z,33.50
2017-05-12T13:57:24.108Z,32.00
2017-05-12T13:59:53.187Z,32.50
2017-05-12T14:02:22.243Z,32.60
2017-05-12T14:04:51.336Z,31.30
2017-05-12T14:07:20.420Z,31.30
2017-05-12T14:09:49.460Z,34.90
2017-05-12T14:12:19.589Z,33.60
2017-05-12T14:14:48.655Z,31.50
2017-05-12T14:17:18.582Z,30.00
2017-05-12T14:19:48.620Z,30.00
2017-05-12T14:22:17.721Z,29.80
2017-05-12T14:24:46.756Z,32.20
2017-05-12T14:27:15.832Z,32.10
2017-05-12T14:29:44.896Z,29.80
2017-05-12T14:32:13.997Z,31.50
2017-05-12T14:34:43.811Z,30.10
2017-05-12T14:37:12.879Z,29.80
2017-05-12T14:39:41.963Z,27.80
2017-05-12T14:42:11.301Z,29.50
2017-05-12T14:44:40.367Z,29.50
2017-05-12T14:47:09.427Z,28.60
2017-05-12T14:49:38.454Z,30.00
2017-05-12T14:52:07.528Z,28.80
2017-05-12T14:54:36.405Z,29.00
2017-05-12T14:57:05.416Z,28.80
2017-05-12T14:59:34.474Z,28.10
2017-05-12T15:02:03.516Z,27.70
2017-05-12T15:04:32.591Z,26.90
2017-05-12T15:07:01.643Z,27.70
2017-05-12T15:09:31.452Z,28.00
2017-05-12T15:12:02.098Z,26.40
2017-05-12T15:14:31.497Z,25.90
2017-05-12T15:17:00.535Z,26.70
2017-05-12T15:19:29.615Z,27.50
2017-05-12T15:21:58.968Z,26.00
2017-05-12T15:24:28.740Z,27.50
2017-05-12T15:26:57.819Z,27.50
2017-05-12T15:29:26.888Z,27.30
2017-05-12T15:31:56.675Z,27.40
2017-05-12T15:34:25.758Z,27.10
2017-05-12T15:36:54.786Z,25.70
2017-05-12T15:39:24.607Z,27.50
2017-05-12T15:41:53.640Z,26.30
2017-05-12T15:44:22.724Z,25.20
2017-05-12T15:46:51.845Z,25.20
2017-05-12T15:49:20.875Z,25.10
2017-05-12T15:51:50.688Z,24.80
2017-05-12T15:54:19.735Z,25.40
2017-05-12T15:56:48.869Z,26.30
2017-05-12T15:59:17.942Z,26.00
2017-05-12T16:01:46.983Z,26.30
2017-05-12T16:04:16.076Z,26.20
2017-05-12T16:06:45.125Z,25.20
2017-05-12T16:09:14.211Z,24.50
2017-05-12T16:11:43.290Z,24.50
2017-05-12T16:14:12.330Z,26.20
2017-05-12T16:16:41.664Z,26.20
2017-05-12T16:19:10.733Z,27.90
2017-05-12T16:21:39.780Z,27.50
2017-05-12T16:24:08.907Z,28.40
2017-05-12T16:26:37.954Z,29.20
2017-05-12T16:29:07.049Z,31.30
2017-05-12T16:31:36.081Z,29.70
2017-05-12T16:34:05.160Z,29.10
2017-05-12T16:36:34.232Z,29.40
2017-05-12T16:39:03.325Z,27.90
2017-05-12T16:41:32.409Z,27.90
2017-05-12T16:44:02.188Z,28.50
2017-05-12T16:46:31.273Z,29.40
2017-05-12T16:49:00.300Z,29.80
2017-05-12T16:51:29.400Z,30.30
2017-05-12T16:53:58.431Z,31.90
2017-05-12T16:56:27.509Z,31.80
2017-05-12T16:58:56.602Z,31.80
2017-05-12T17:01:26.371Z,32.60
2017-05-12T17:03:55.802Z,31.90
2017-05-12T17:06:25.834Z,32.30
2017-05-12T17:08:54.931Z,32.60
2017-05-12T17:11:24.704Z,33.40
2017-05-12T17:13:53.836Z,34.20
2017-05-12T17:16:22.960Z,34.20
2017-05-12T17:18:52.034Z,35.70
2017-05-12T17:21:21.841Z,36.70
2017-05-12T17:23:51.660Z,38.70
2017-05-12T17:26:20.693Z,39.60
2017-05-12T17:28:49.756Z,41.30
2017-05-12T17:31:18.788Z,41.60
2017-05-12T17:33:47.888Z,42.30
2017-05-12T17:36:16.914Z,44.20
2017-05-12T17:38:46.001Z,44.70
2017-05-12T17:41:15.043Z,45.80
2017-05-12T17:43:44.108Z,45.20
2017-05-12T17:46:13.890Z,46.50
2017-05-12T17:48:42.971Z,46.40
2017-05-12T17:51:12.024Z,47.00
2017-05-12T17:53:41.818Z,46.50
2017-05-12T17:56:11.631Z,46.00
2017-05-12T17:58:41.411Z,46.60
2017-05-12T18:01:10.486Z,46.90
2017-05-12T18:03:39.510Z,48.40
2017-05-12T18:06:08.582Z,50.60
2017-05-12T18:08:37.651Z,51.70
2017-05-12T18:11:06.683Z,50.90
2017-05-12T18:13:35.828Z,50.30
2017-05-12T18:16:05.607Z,52.10
2017-05-12T18:18:34.674Z,51.90
2017-05-12T18:21:03.713Z,49.90
2017-05-12T18:23:32.804Z,51.30
2017-05-12T18:26:01.852Z,51.50
2017-05-12T18:28:31.232Z,52.30
2017-05-12T18:31:00.265Z,52.60
2017-05-12T18:33:29.336Z,50.90
2017-05-12T18:35:58.416Z,53.40
2017-05-12T18:38:27.456Z,52.90
2017-05-12T18:40:56.536Z,52.90
2017-05-12T18:43:25.570Z,53.90
2017-05-12T18:45:54.911Z,55.50
2017-05-12T18:48:23.960Z,55.90
2017-05-12T18:50:53.045Z,54.60
2017-05-12T18:53:22.072Z,55.20
2017-05-12T18:55:52.295Z,56.70
2017-05-12T18:58:22.331Z,57.20
2017-05-12T19:00:52.159Z,57.10
2017-05-12T19:03:21.200Z,57.40
2017-05-12T19:05:50.292Z,57.60
2017-05-12T19:08:19.364Z,57.80
2017-05-12T19:10:48.443Z,57.60
2017-05-12T19:13:17.480Z,57.40
2017-05-12T19:15:46.568Z,57.70
2017-05-12T19:18:15.669Z,58.00
2017-05-12T19:20:44.735Z,56.90
2017-05-12T19:23:13.810Z,57.40
2017-05-12T19:25:43.106Z,58.20
2017-05-12T19:28:12.919Z,58.80
2017-05-12T19:30:41.993Z,59.60
2017-05-12T19:33:11.829Z,59.10
2017-05-12T19:35:40.900Z,59.50
2017-05-12T19:38:10.726Z,57.30
2017-05-12T19:40:40.507Z,59.50
2017-05-12T19:43:09.603Z,60.10
2017-05-12T19:45:38.948Z,60.90
2017-05-12T19:48:08.055Z,61.20
2017-05-12T19:50:37.095Z,61.10
2017-05-12T19:53:06.167Z,61.50
2017-05-12T19:55:35.272Z,62.00
2017-05-12T19:58:04.316Z,62.30
2017-05-12T20:00:34.144Z,62.60
2017-05-12T20:03:03.923Z,62.00
2017-05-12T20:05:33.755Z,62.80
2017-05-12T20:08:03.521Z,63.10
2017-05-12T20:10:32.612Z,62.80
2017-05-12T20:13:01.715Z,62.90
2017-05-12T20:15:30.795Z,63.00
2017-05-12T20:17:59.905Z,63.80
2017-05-12T20:20:28.938Z,64.20
2017-05-12T20:22:58.789Z,63.70
2017-05-12T20:25:27.860Z,64.50
2017-05-12T20:27:57.720Z,64.40
2017-05-12T20:30:26.760Z,63.90
2017-05-12T20:32:56.595Z,65.70
2017-05-12T20:35:25.632Z,65.10
2017-05-12T20:37:54.986Z,64.80
2017-05-12T20:40:24.081Z,66.00
2017-05-12T20:42:53.131Z,65.70
2017-05-12T20:45:22.220Z,65.70
2017-05-12T20:47:51.336Z,66.60
2017-05-12T20:50:21.150Z,67.00
2017-05-12T20:52:50.227Z,66.80
2017-05-12T20:55:19.280Z,67.20
2017-05-12T20:57:48.384Z,67.50
2017-05-12T21:00:17.486Z,68.00
2017-05-12T21:02:46.528Z,68.30
2017-05-12T21:05:15.619Z,68.40
2017-05-12T21:07:44.678Z,68.00
2017-05-12T21:10:13.769Z,68.90
2017-05-12T21:12:42.862Z,68.90
2017-05-12T21:15:11.912Z,68.90
2017-05-12T21:17:41.743Z,68.00
2017-05-12T21:20:10.805Z,70.20
2017-05-12T21:22:39.899Z,70.80
2017-05-12T21:25:08.973Z,71.00
2017-05-12T21:27:38.079Z,70.20
2017-05-12T21:30:07.132Z,71.00
2017-05-12T21:32:36.228Z,71.00
2017-05-12T21:35:05.338Z,72.10
2017-05-12T21:37:34.426Z,71.20
2017-05-12T21:40:03.499Z,72.00
2017-05-12T21:42:33.278Z,72.00
2017-05-12T21:45:02.378Z,73.00
2017-05-12T21:47:31.428Z,71.00
2017-05-12T21:50:00.512Z,72.50
2017-05-12T21:52:29.560Z,74.00
2017-05-12T21:54:58.686Z,73.90
2017-05-12T21:57:27.797Z,72.20
2017-05-12T22:02:26.600Z,73.60
2017-05-12T22:04:55.697Z,75.40
2017-05-12T22:07:24.771Z,75.70
2017-05-12T22:09:53.816Z,76.20
2017-05-12T22:12:22.924Z,76.40
2017-05-12T22:14:51.985Z,76.20
2017-05-12T22:17:21.084Z,75.20
2017-05-12T22:19:50.124Z,75.20
2017-05-12T22:22:19.204Z,76.00
2017-05-12T22:24:48.276Z,76.70
2017-05-12T22:27:17.344Z,77.20
2017-05-12T22:29:47.142Z,77.30
2017-05-12T22:32:16.243Z,76.70
2017-05-12T22:34:46.038Z,76.30
2017-05-12T22:37:15.126Z,75.10
2017-05-12T22:39:44.163Z,75.90
2017-05-12T22:42:13.982Z,77.00
2017-05-12T22:44:43.754Z,76.40
2017-05-12T22:47:12.851Z,78.20
2017-05-12T22:49:41.898Z,78.40
2017-05-12T22:52:10.987Z,77.80
2017-05-12T22:54:40.033Z,78.50
2017-05-12T22:57:09.108Z,77.70
2017-05-12T22:59:38.215Z,78.60
2017-05-12T23:02:07.265Z,77.30
2017-05-12T23:04:36.352Z,79.60
2017-05-12T23:07:06.135Z,79.40
2017-05-12T23:09:35.224Z,77.90
2017-05-12T23:12:04.267Z,77.20
2017-05-12T23:14:33.352Z,78.50
2017-05-12T23:17:03.140Z,76.20
2017-05-12T23:19:32.233Z,78.00
2017-05-12T23:22:01.324Z,77.70
2017-05-12T23:24:30.363Z,78.60
2017-05-12T23:26:59.435Z,77.70
2017-05-12T23:29:29.272Z,80.60
2017-05-12T23:31:58.319Z,79.90
2017-05-12T23:34:27.400Z,79.50
2017-05-12T23:36:56.496Z,80.00
2017-05-12T23:39:25.549Z,80.70
2017-05-12T23:41:55.392Z,80.40
2017-05-12T23:44:24.435Z,81.40
2017-05-12T23:46:53.507Z,81.10
2017-05-12T23:49:22.601Z,80.80
2017-05-12T23:51:51.648Z,78.80
2017-05-12T23:54:20.730Z,81.50
2017-05-12T23:56:50.539Z,81.00
2017-05-12T23:59:19.580Z,79.40
